createdAt,value
2023-08-02T00:02:02.793Z,90.06
2023-08-02T00:04:29.300Z,90.69
2023-08-02T00:06:55.799Z,90.17
2023-08-02T00:09:22.291Z,89.68
2023-08-02T00:11:51.930Z,90.25
2023-08-02T00:14:18.450Z,90.07
2023-08-02T00:16:45.321Z,90.33
2023-08-02T00:19:14.523Z,90.72
2023-08-02T00:21:41.029Z,90.55
2023-08-02T00:24:08.017Z,90.28
2023-08-02T00:26:34.580Z,89.68
2023-08-02T00:29:01.037Z,90.32
2023-08-02T00:31:27.567Z,90.73
2023-08-02T00:33:53.996Z,90.57
2023-08-02T00:36:20.488Z,90.86
2023-08-02T00:38:46.920Z,91.62
2023-08-02T00:41:13.696Z,91.08
2023-08-02T00:43:40.764Z,91.31
2023-08-02T00:46:11.907Z,90.72
2023-08-02T00:48:39.204Z,90.13
2023-08-02T00:51:09.092Z,90.47
2023-08-02T00:53:35.978Z,90.65
2023-08-02T00:56:03.256Z,91.04
2023-08-02T00:58:29.691Z,90.64
2023-08-02T01:00:56.193Z,90.92
2023-08-02T01:03:22.724Z,90.96
2023-08-02T01:05:59.744Z,91.83
2023-08-02T01:08:34.547Z,91.91
2023-08-02T01:11:09.281Z,92.55
2023-08-02T01:13:40.180Z,92.59
2023-08-02T01:16:08.577Z,92.75
2023-08-02T01:18:35.111Z,93.11
2023-08-02T01:21:01.519Z,92.81
2023-08-02T01:23:27.974Z,93.20
2023-08-02T01:25:56.406Z,93.31
2023-08-02T01:28:24.879Z,93.11
2023-08-02T01:30:53.349Z,94.70
2023-08-02T01:33:21.434Z,95.11
2023-08-02T01:35:47.881Z,94.15
2023-08-02T01:38:14.730Z,92.88
2023-08-02T01:40:41.224Z,92.41
2023-08-02T01:43:07.678Z,92.58
2023-08-02T01:45:34.165Z,93.09
2023-08-02T01:48:02.546Z,92.57
2023-08-02T01:50:30.044Z,92.30
2023-08-02T01:52:56.691Z,92.54
2023-08-02T01:55:23.103Z,92.91
2023-08-02T01:57:49.552Z,93.58
2023-08-02T02:00:16.099Z,92.76
2023-08-02T02:02:42.648Z,92.72
2023-08-02T02:05:09.399Z,93.30
2023-08-02T02:07:35.907Z,92.86
2023-08-02T02:10:02.340Z,93.34
2023-08-02T02:12:28.746Z,94.18
2023-08-02T02:14:55.278Z,94.46
2023-08-02T02:17:21.931Z,95.44
2023-08-02T02:19:48.433Z,95.42
2023-08-02T02:22:14.866Z,95.43
2023-08-02T02:24:41.315Z,94.85
2023-08-02T02:27:07.793Z,96.43
2023-08-02T02:29:34.246Z,95.92
2023-08-02T02:32:00.789Z,96.35
2023-08-02T02:34:27.230Z,95.67
2023-08-02T02:36:53.651Z,95.45
2023-08-02T02:39:20.059Z,95.47
2023-08-02T02:41:46.469Z,95.17
2023-08-02T02:44:12.925Z,95.15
2023-08-02T02:46:39.598Z,95.23
2023-08-02T02:49:06.126Z,97.59
2023-08-02T02:51:32.606Z,96.29
2023-08-02T02:53:59.069Z,95.11
2023-08-02T02:56:25.534Z,94.83
2023-08-02T02:58:51.968Z,94.44
2023-08-02T03:01:18.455Z,94.22
2023-08-02T03:03:44.915Z,94.12
2023-08-02T03:06:11.418Z,93.27
2023-08-02T03:08:37.892Z,93.00
2023-08-02T03:11:04.635Z,93.15
2023-08-02T03:13:31.056Z,92.75
2023-08-02T03:15:57.480Z,92.61
2023-08-02T03:18:23.868Z,91.58
2023-08-02T03:20:50.332Z,91.85
2023-08-02T03:23:16.773Z,92.12
2023-08-02T03:25:43.207Z,92.44
2023-08-02T03:28:09.605Z,92.17
2023-08-02T03:30:36.071Z,92.13
2023-08-02T03:33:02.518Z,92.21
2023-08-02T03:35:28.952Z,92.49
2023-08-02T03:37:55.363Z,93.36
2023-08-02T03:40:21.810Z,93.48
2023-08-02T03:42:48.275Z,92.32
2023-08-02T03:45:14.846Z,92.95
2023-08-02T03:47:41.383Z,92.62
2023-08-02T03:50:08.143Z,92.50
2023-08-02T03:52:34.651Z,92.39
2023-08-02T03:55:01.255Z,91.96
2023-08-02T03:57:27.693Z,91.95
2023-08-02T03:59:54.109Z,92.39
2023-08-02T04:02:20.522Z,91.99
2023-08-02T04:04:46.953Z,91.90
2023-08-02T04:07:13.444Z,91.65
2023-08-02T04:09:39.859Z,91.50
2023-08-02T04:12:06.787Z,91.81
2023-08-02T04:14:33.436Z,91.67
2023-08-02T04:16:59.852Z,91.61
2023-08-02T04:19:27.076Z,91.12
2023-08-02T04:21:53.492Z,92.34
2023-08-02T04:24:20.044Z,91.98
2023-08-02T04:26:46.548Z,93.16
2023-08-02T04:29:13.088Z,93.82
2023-08-02T04:31:39.537Z,95.52
2023-08-02T04:34:06.632Z,94.99
2023-08-02T04:36:33.185Z,95.27
2023-08-02T04:39:03.254Z,96.44
2023-08-02T04:41:29.671Z,96.21
2023-08-02T04:43:56.123Z,96.87
2023-08-02T04:46:23.192Z,97.85
2023-08-02T04:48:49.862Z,98.88
2023-08-02T04:51:16.258Z,98.38
2023-08-02T04:53:43.862Z,98.79
2023-08-02T04:56:10.849Z,100.00
2023-08-02T04:58:37.306Z,99.38
2023-08-02T05:01:05.823Z,99.48
2023-08-02T05:03:33.083Z,100.00
2023-08-02T05:06:04.603Z,100.00
2023-08-02T05:08:36.237Z,100.00
2023-08-02T05:11:05.563Z,100.00
2023-08-02T05:13:32.143Z,100.00
2023-08-02T05:15:58.931Z,100.00
2023-08-02T05:18:25.510Z,100.00
2023-08-02T05:20:53.829Z,100.00
2023-08-02T05:23:20.341Z,100.00
2023-08-02T05:25:47.055Z,100.00
2023-08-02T05:28:13.468Z,100.00
2023-08-02T05:30:40.000Z,100.00
2023-08-02T05:33:07.740Z,100.00
2023-08-02T05:35:34.447Z,100.00
2023-08-02T05:38:00.868Z,100.00
2023-08-02T05:40:27.269Z,100.00
2023-08-02T05:42:54.279Z,100.00
2023-08-02T05:45:20.727Z,100.00
2023-08-02T05:47:50.365Z,100.00
2023-08-02T05:50:16.846Z,100.00
2023-08-02T05:52:43.340Z,100.00
2023-08-02T05:55:12.817Z,100.00
2023-08-02T05:57:39.747Z,100.00
2023-08-02T06:00:08.219Z,100.00
2023-08-02T06:02:34.854Z,100.00
2023-08-02T06:05:01.361Z,100.00
2023-08-02T06:07:27.764Z,100.00
2023-08-02T06:09:54.224Z,100.00
2023-08-02T06:12:20.683Z,100.00
2023-08-02T06:14:47.117Z,100.00
2023-08-02T06:17:13.608Z,100.00
2023-08-02T06:19:40.300Z,100.00
2023-08-02T06:22:06.914Z,100.00
2023-08-02T06:24:33.474Z,100.00
2023-08-02T06:27:00.015Z,100.00
2023-08-02T06:29:26.574Z,100.00
2023-08-02T06:31:53.005Z,100.00
2023-08-02T06:34:19.415Z,100.00
2023-08-02T06:36:45.941Z,100.00
2023-08-02T06:39:13.017Z,100.00
2023-08-02T06:41:39.655Z,100.00
2023-08-02T06:44:06.704Z,100.00
2023-08-02T06:46:34.318Z,100.00
2023-08-02T06:49:01.083Z,100.00
2023-08-02T06:51:27.585Z,100.00
2023-08-02T06:53:58.728Z,100.00
2023-08-02T06:56:26.249Z,100.00
2023-08-02T06:58:52.773Z,100.00
2023-08-02T07:01:23.750Z,100.00
2023-08-02T07:03:50.800Z,100.00
2023-08-02T07:06:19.608Z,100.00
2023-08-02T07:08:46.833Z,100.00
2023-08-02T07:11:26.157Z,100.00
2023-08-02T07:13:57.155Z,100.00
2023-08-02T07:16:23.829Z,100.00
2023-08-02T07:18:50.427Z,100.00
2023-08-02T07:21:16.981Z,100.00
2023-08-02T07:23:43.516Z,100.00
2023-08-02T07:26:10.777Z,100.00
2023-08-02T07:28:37.358Z,100.00
2023-08-02T07:31:13.092Z,100.00
2023-08-02T07:33:40.744Z,100.00
2023-08-02T07:36:19.127Z,100.00
2023-08-02T07:38:46.609Z,100.00
2023-08-02T07:41:13.827Z,100.00
2023-08-02T07:43:40.578Z,100.00
2023-08-02T07:46:15.786Z,100.00
2023-08-02T07:48:42.432Z,100.00
2023-08-02T07:51:08.969Z,100.00
2023-08-02T07:53:37.519Z,100.00
2023-08-02T07:56:05.168Z,100.00
2023-08-02T07:58:31.927Z,100.00
2023-08-02T08:01:04.780Z,100.00
2023-08-02T08:03:31.297Z,100.00
2023-08-02T08:05:57.845Z,100.00
2023-08-02T08:08:24.369Z,100.00
2023-08-02T08:10:54.128Z,100.00
2023-08-02T08:13:20.708Z,100.00
2023-08-02T08:15:48.621Z,100.00
2023-08-02T08:18:15.201Z,100.00
2023-08-02T08:20:41.769Z,100.00
2023-08-02T08:23:08.402Z,100.00
2023-08-02T08:25:35.027Z,100.00
2023-08-02T08:28:01.634Z,100.00
2023-08-02T08:30:28.226Z,100.00
2023-08-02T08:32:54.898Z,100.00
2023-08-02T08:35:22.475Z,100.00
2023-08-02T08:37:50.538Z,100.00
2023-08-02T08:40:21.248Z,100.00
2023-08-02T08:42:55.027Z,100.00
2023-08-02T08:45:23.667Z,100.00
2023-08-02T08:47:52.202Z,100.00
2023-08-02T08:50:20.572Z,100.00
2023-08-02T08:52:48.661Z,100.00
2023-08-02T08:55:16.708Z,100.00
2023-08-02T08:57:46.517Z,100.00
2023-08-02T09:00:15.173Z,100.00
2023-08-02T09:02:43.741Z,100.00
2023-08-02T09:05:11.253Z,100.00
2023-08-02T09:07:37.956Z,100.00
2023-08-02T09:10:04.840Z,100.00
2023-08-02T09:12:43.914Z,100.00
2023-08-02T09:15:10.613Z,100.00
2023-08-02T09:17:49.476Z,100.00
2023-08-02T09:20:17.641Z,100.00
2023-08-02T09:22:44.443Z,100.00
2023-08-02T09:25:28.681Z,100.00
2023-08-02T09:27:57.966Z,100.00
2023-08-02T09:30:34.119Z,100.00
2023-08-02T09:33:02.316Z,100.00
2023-08-02T09:35:31.962Z,100.00
2023-08-02T09:37:58.580Z,100.00
2023-08-02T09:40:49.451Z,100.00
2023-08-02T09:43:23.656Z,100.00
2023-08-02T09:45:50.288Z,100.00
2023-08-02T09:48:16.870Z,100.00
2023-08-02T09:50:57.005Z,100.00
2023-08-02T09:53:26.015Z,100.00
2023-08-02T09:55:54.192Z,100.00
2023-08-02T09:58:21.834Z,100.00
2023-08-02T10:00:49.167Z,100.00
2023-08-02T10:03:25.322Z,100.00
2023-08-02T10:05:54.836Z,100.00
2023-08-02T10:08:22.306Z,100.00
2023-08-02T10:10:49.392Z,100.00
2023-08-02T10:13:22.532Z,100.00
2023-08-02T10:15:50.708Z,100.00
2023-08-02T10:18:18.567Z,100.00
2023-08-02T10:20:47.286Z,100.00
2023-08-02T10:23:14.040Z,100.00
2023-08-02T10:25:43.023Z,100.00
2023-08-02T10:28:10.778Z,100.00
2023-08-02T10:30:37.948Z,100.00
2023-08-02T10:33:17.054Z,100.00
2023-08-02T10:36:06.650Z,100.00
2023-08-02T10:38:46.022Z,100.00
2023-08-02T10:41:17.904Z,100.00
2023-08-02T10:43:54.312Z,100.00
2023-08-02T10:46:26.828Z,100.00
2023-08-02T10:48:53.990Z,100.00
2023-08-02T10:51:31.496Z,100.00
2023-08-02T10:54:10.024Z,100.00
2023-08-02T10:56:52.207Z,100.00
2023-08-02T10:59:24.457Z,100.00
2023-08-02T11:02:08.327Z,100.00
2023-08-02T11:04:36.399Z,100.00
2023-08-02T11:07:15.251Z,100.00
2023-08-02T11:09:42.108Z,100.00
2023-08-02T11:12:16.500Z,100.00
2023-08-02T11:14:45.069Z,100.00
2023-08-02T11:17:14.317Z,100.00
2023-08-02T11:20:05.826Z,100.00
2023-08-02T11:22:40.642Z,100.00
2023-08-02T11:25:10.678Z,100.00
2023-08-02T11:30:09.799Z,100.00
2023-08-02T11:32:47.302Z,100.00
2023-08-02T11:35:20.704Z,100.00
2023-08-02T11:37:47.699Z,100.00
2023-08-02T11:42:48.956Z,100.00
2023-08-02T11:45:36.977Z,100.00
2023-08-02T11:48:11.089Z,100.00
2023-08-02T11:50:40.031Z,100.00
2023-08-02T11:53:09.071Z,100.00
2023-08-02T11:55:40.180Z,100.00
2023-08-02T11:58:08.125Z,100.00
2023-08-02T12:00:35.553Z,100.00
2023-08-02T12:03:13.710Z,100.00
2023-08-02T12:05:41.870Z,100.00
2023-08-02T12:08:20.587Z,100.00
2023-08-02T12:10:48.689Z,100.00
2023-08-02T12:13:17.251Z,100.00
2023-08-02T12:16:03.398Z,100.00
2023-08-02T12:18:29.985Z,100.00
2023-08-02T12:20:56.845Z,100.00
2023-08-02T12:23:34.244Z,100.00
2023-08-02T12:26:01.405Z,100.00
2023-08-02T12:28:46.285Z,100.00
2023-08-02T12:31:13.968Z,100.00
2023-08-02T12:33:40.576Z,100.00
2023-08-02T12:36:07.645Z,100.00
2023-08-02T12:38:34.249Z,100.00
2023-08-02T12:41:03.254Z,99.54
2023-08-02T12:43:30.167Z,97.82
2023-08-02T12:45:56.772Z,96.68
2023-08-02T12:48:23.434Z,96.46
2023-08-02T12:50:50.041Z,96.57
2023-08-02T12:53:16.543Z,96.18
2023-08-02T12:55:43.076Z,95.96
2023-08-02T12:58:09.627Z,95.80
2023-08-02T13:00:36.281Z,96.52
2023-08-02T13:03:02.936Z,97.28
2023-08-02T13:05:29.522Z,96.27
2023-08-02T13:07:56.254Z,97.78
2023-08-02T13:10:22.888Z,97.85
2023-08-02T13:12:49.511Z,98.46
2023-08-02T13:15:16.218Z,99.19
2023-08-02T13:17:43.661Z,98.19
2023-08-02T13:20:11.062Z,100.00
2023-08-02T13:22:37.727Z,100.00
2023-08-02T13:25:04.772Z,100.00
2023-08-02T13:27:34.229Z,100.00
2023-08-02T13:30:01.390Z,100.00
2023-08-02T13:32:29.979Z,100.00
2023-08-02T13:34:59.033Z,100.00
2023-08-02T13:37:26.434Z,100.00
2023-08-02T13:39:53.119Z,99.04
2023-08-02T13:42:19.655Z,99.82
2023-08-02T13:44:46.158Z,100.00
2023-08-02T13:47:12.687Z,100.00
2023-08-02T13:49:39.181Z,100.00
2023-08-02T13:52:06.328Z,100.00
2023-08-02T13:54:32.850Z,100.00
2023-08-02T13:56:59.424Z,100.00
2023-08-02T13:59:25.957Z,100.00
2023-08-02T14:01:52.504Z,100.00
2023-08-02T14:04:19.613Z,100.00
2023-08-02T14:06:46.383Z,100.00
2023-08-02T14:09:13.332Z,100.00
2023-08-02T14:11:40.010Z,100.00
2023-08-02T14:14:09.831Z,100.00
2023-08-02T14:16:36.999Z,100.00
2023-08-02T14:19:04.393Z,100.00
2023-08-02T14:21:31.710Z,100.00
2023-08-02T14:23:58.616Z,99.60
2023-08-02T14:26:27.863Z,100.00
2023-08-02T14:28:54.950Z,98.19
2023-08-02T14:31:22.017Z,96.65
2023-08-02T14:33:48.672Z,94.68
2023-08-02T14:36:15.267Z,94.28
2023-08-02T14:38:41.803Z,95.44
2023-08-02T14:41:08.359Z,95.72
2023-08-02T14:43:34.927Z,98.90
2023-08-02T14:46:03.978Z,99.83
2023-08-02T14:48:30.999Z,100.00
2023-08-02T14:50:58.130Z,100.00
2023-08-02T14:53:27.351Z,100.00
2023-08-02T14:55:53.936Z,100.00
2023-08-02T14:58:20.524Z,100.00
2023-08-02T15:00:47.178Z,100.00
2023-08-02T15:03:13.824Z,100.00
2023-08-02T15:05:42.231Z,100.00
2023-08-02T15:08:09.216Z,100.00
2023-08-02T15:10:35.790Z,100.00
2023-08-02T15:13:02.405Z,100.00
2023-08-02T15:15:28.939Z,100.00
2023-08-02T15:17:55.565Z,100.00
2023-08-02T15:20:22.194Z,100.00
2023-08-02T15:22:48.727Z,100.00
2023-08-02T15:25:15.234Z,100.00
2023-08-02T15:27:41.853Z,100.00
2023-08-02T15:30:08.946Z,100.00
2023-08-02T15:32:35.501Z,100.00
2023-08-02T15:35:02.266Z,100.00
2023-08-02T15:37:28.802Z,100.00
2023-08-02T15:39:55.322Z,100.00
2023-08-02T15:42:25.280Z,100.00
2023-08-02T15:44:52.934Z,100.00
2023-08-02T15:47:19.515Z,100.00
2023-08-02T15:49:46.193Z,100.00
2023-08-02T15:52:12.814Z,100.00
2023-08-02T15:54:39.333Z,100.00
2023-08-02T15:57:06.326Z,100.00
2023-08-02T15:59:32.831Z,100.00
2023-08-02T16:01:59.367Z,100.00
2023-08-02T16:04:26.371Z,100.00
2023-08-02T16:06:55.640Z,100.00
2023-08-02T16:09:22.514Z,100.00
2023-08-02T16:11:49.103Z,100.00
2023-08-02T16:14:15.565Z,100.00
2023-08-02T16:16:42.725Z,100.00
2023-08-02T16:19:10.838Z,100.00
2023-08-02T16:21:37.384Z,100.00
2023-08-02T16:24:04.068Z,100.00
2023-08-02T16:26:30.554Z,100.00
2023-08-02T16:28:57.049Z,100.00
2023-08-02T16:31:23.514Z,100.00
2023-08-02T16:33:50.089Z,100.00
2023-08-02T16:36:16.601Z,99.89
2023-08-02T16:38:43.076Z,100.00
2023-08-02T16:41:09.513Z,100.00
2023-08-02T16:43:36.011Z,99.12
2023-08-02T16:46:02.526Z,99.49
2023-08-02T16:48:29.057Z,99.08
2023-08-02T16:50:55.478Z,98.61
2023-08-02T16:53:22.154Z,98.08
2023-08-02T16:55:48.566Z,97.39
2023-08-02T16:58:14.977Z,97.92
2023-08-02T17:00:41.391Z,97.17
2023-08-02T17:03:07.893Z,97.11
2023-08-02T17:05:34.319Z,96.61
2023-08-02T17:08:00.749Z,96.12
2023-08-02T17:10:27.232Z,96.49
2023-08-02T17:12:53.750Z,95.69
2023-08-02T17:15:21.231Z,96.10
2023-08-02T17:17:47.691Z,95.16
2023-08-02T17:20:14.560Z,94.51
2023-08-02T17:22:40.980Z,94.86
2023-08-02T17:25:07.843Z,93.17
2023-08-02T17:27:34.269Z,92.22
2023-08-02T17:30:00.661Z,91.69
2023-08-02T17:32:27.125Z,91.29
2023-08-02T17:34:53.804Z,91.43
2023-08-02T17:37:20.189Z,90.38
2023-08-02T17:39:52.327Z,88.46
2023-08-02T17:42:18.849Z,88.93
2023-08-02T17:44:45.257Z,89.44
2023-08-02T17:47:11.679Z,86.83
2023-08-02T17:49:38.062Z,85.56
2023-08-02T17:52:04.926Z,84.32
2023-08-02T17:54:31.336Z,82.29
2023-08-02T17:56:57.811Z,83.87
2023-08-02T17:59:26.418Z,82.68
2023-08-02T18:01:53.183Z,78.75
2023-08-02T18:04:23.679Z,77.74
2023-08-02T18:06:51.092Z,76.37
2023-08-02T18:09:17.499Z,76.66
2023-08-02T18:11:44.212Z,73.84
2023-08-02T18:14:11.040Z,73.02
2023-08-02T18:16:37.538Z,74.96
2023-08-02T18:19:04.133Z,73.90
2023-08-02T18:21:30.494Z,73.88
2023-08-02T18:23:56.911Z,75.02
2023-08-02T18:26:23.367Z,76.97
2023-08-02T18:28:50.538Z,76.63
2023-08-02T18:31:17.019Z,77.02
2023-08-02T18:33:43.604Z,77.54
2023-08-02T18:36:12.521Z,78.20
2023-08-02T18:38:40.801Z,78.50
2023-08-02T18:41:16.846Z,79.07
2023-08-02T18:43:43.280Z,77.02
2023-08-02T18:46:09.903Z,76.98
2023-08-02T18:48:36.369Z,74.23
2023-08-02T18:51:03.770Z,73.42
2023-08-02T18:53:33.257Z,73.84
2023-08-02T18:56:00.053Z,73.04
2023-08-02T18:58:27.158Z,72.86
2023-08-02T19:00:53.637Z,74.65
2023-08-02T19:03:20.077Z,72.40
2023-08-02T19:05:46.996Z,73.38
2023-08-02T19:08:16.580Z,73.36
2023-08-02T19:10:42.985Z,73.62
2023-08-02T19:13:15.946Z,72.87
2023-08-02T19:15:43.469Z,73.15
2023-08-02T19:18:11.185Z,72.75
2023-08-02T19:20:37.661Z,73.44
2023-08-02T19:23:04.055Z,73.39
2023-08-02T19:25:31.741Z,74.95
2023-08-02T19:28:02.462Z,74.73
2023-08-02T19:30:29.318Z,74.71
2023-08-02T19:32:55.825Z,74.68
2023-08-02T19:35:27.214Z,75.16
2023-08-02T19:37:54.092Z,74.71
2023-08-02T19:40:21.141Z,74.76
2023-08-02T19:42:48.914Z,74.33
2023-08-02T19:45:15.325Z,75.56
2023-08-02T19:47:41.777Z,76.20
2023-08-02T19:50:08.842Z,76.87
2023-08-02T19:52:35.331Z,77.25
2023-08-02T19:55:04.187Z,77.20
2023-08-02T19:57:42.521Z,77.63
2023-08-02T20:00:13.281Z,78.13
2023-08-02T20:02:39.909Z,78.16
2023-08-02T20:05:15.989Z,78.59
2023-08-02T20:07:42.779Z,79.19
2023-08-02T20:10:41.173Z,79.33
2023-08-02T20:13:15.134Z,78.60
2023-08-02T20:15:41.557Z,77.46
2023-08-02T20:18:10.140Z,77.86
2023-08-02T20:20:36.958Z,77.65
2023-08-02T20:23:06.658Z,77.57
2023-08-02T20:25:33.137Z,77.07
2023-08-02T20:27:59.593Z,78.32
2023-08-02T20:30:26.033Z,76.54
2023-08-02T20:32:54.469Z,76.70
2023-08-02T20:35:21.102Z,77.47
2023-08-02T20:37:52.765Z,77.31
2023-08-02T20:40:19.209Z,76.00
2023-08-02T20:42:45.659Z,77.92
2023-08-02T20:45:15.914Z,77.28
2023-08-02T20:47:42.352Z,76.80
2023-08-02T20:50:13.432Z,78.07
2023-08-02T20:52:43.483Z,77.02
2023-08-02T20:55:10.776Z,78.19
2023-08-02T20:57:40.441Z,78.47
2023-08-02T21:00:15.282Z,77.95
2023-08-02T21:02:45.684Z,77.85
2023-08-02T21:05:12.231Z,77.94
2023-08-02T21:07:38.687Z,78.70
2023-08-02T21:10:13.547Z,78.49
2023-08-02T21:12:46.961Z,78.51
2023-08-02T21:15:13.806Z,78.95
2023-08-02T21:17:43.893Z,78.82
2023-08-02T21:20:33.245Z,78.10
2023-08-02T21:23:04.477Z,78.15
2023-08-02T21:25:32.430Z,77.65
2023-08-02T21:27:58.817Z,77.70
2023-08-02T21:30:25.428Z,78.53
2023-08-02T21:32:51.850Z,78.43
2023-08-02T21:35:20.955Z,77.93
2023-08-02T21:37:47.404Z,77.25
2023-08-02T21:40:15.868Z,77.49
2023-08-02T21:42:43.628Z,76.99
2023-08-02T21:45:13.217Z,76.80
2023-08-02T21:47:42.474Z,76.67
2023-08-02T21:50:10.048Z,77.00
2023-08-02T21:52:36.528Z,76.71
2023-08-02T21:55:04.573Z,77.41
2023-08-02T21:57:34.439Z,77.16
2023-08-02T22:00:01.577Z,76.46
2023-08-02T22:02:35.073Z,76.44
2023-08-02T22:05:01.728Z,75.88
2023-08-02T22:07:28.123Z,77.01
2023-08-02T22:09:55.527Z,76.73
2023-08-02T22:12:22.287Z,76.90
2023-08-02T22:14:48.898Z,76.81
2023-08-02T22:17:22.487Z,76.41
2023-08-02T22:19:49.010Z,77.21
2023-08-02T22:22:15.544Z,77.42
2023-08-02T22:24:41.947Z,77.55
2023-08-02T22:27:08.370Z,77.85
2023-08-02T22:29:36.809Z,78.15
2023-08-02T22:32:07.747Z,78.34
2023-08-02T22:34:34.172Z,78.76
2023-08-02T22:37:00.558Z,78.40
2023-08-02T22:39:26.927Z,79.08
2023-08-02T22:41:53.300Z,78.92
2023-08-02T22:44:19.832Z,78.38
2023-08-02T22:46:47.403Z,78.41
2023-08-02T22:50:27.322Z,77.90
2023-08-02T22:52:00.375Z,76.78
2023-08-02T22:54:27.458Z,77.22
2023-08-02T22:56:53.840Z,77.04
2023-08-02T22:59:20.383Z,77.32
2023-08-02T23:01:48.988Z,77.53
2023-08-02T23:04:17.243Z,76.81
2023-08-02T23:06:43.869Z,76.64
2023-08-02T23:09:13.929Z,76.25
2023-08-02T23:11:43.237Z,76.83
2023-08-02T23:14:14.323Z,75.93
2023-08-02T23:16:40.930Z,75.65
2023-08-02T23:19:17.693Z,76.00
2023-08-02T23:21:45.399Z,76.17
2023-08-02T23:24:13.312Z,75.81
2023-08-02T23:26:39.922Z,75.89
2023-08-02T23:29:06.564Z,75.11
2023-08-02T23:31:33.071Z,75.36
2023-08-02T23:34:00.679Z,74.96
2023-08-02T23:36:27.341Z,75.41
2023-08-02T23:38:53.732Z,75.98
2023-08-02T23:41:20.223Z,76.11
2023-08-02T23:43:46.635Z,75.61
2023-08-02T23:46:13.143Z,75.89
2023-08-02T23:48:39.695Z,75.64
2023-08-02T23:51:06.104Z,76.08
2023-08-02T23:53:32.538Z,76.36
2023-08-02T23:55:59.012Z,76.81
2023-08-02T23:58:25.489Z,76.99
